Time;durP1;ratioP1;P1;durP2;ratioP2;P2;SDS_P1;SDS_P2;PMS_P1;PMS_P2;Temp;Humidity;BMP_temperature;BMP_pressure;BME280_temperature;BME280_humidity;BME280_pressure;Samples;Min_cycle;Max_cycle;Signal;HPM_P1;HPM_P2
2023/01/12 00:02:19;;;;;;;;;;;;;;;;;;5051556;28;19913;-59
2023/01/12 00:04:45;;;;;;;;;;;;;;;;;;5040782;28;19964;-58
2023/01/12 00:07:11;;;;;;;;;;;;;;;;;;5051182;28;20104;-58
2023/01/12 00:09:37;;;;;;;;;;;;;;;;;;5053518;28;19959;-58
2023/01/12 00:12:04;;;;;;;;;;;;;;;;;;5054032;28;20003;-59
2023/01/12 00:14:30;;;;;;;;;;;;;;;;;;5054717;28;19912;-58
2023/01/12 00:16:56;;;;;;;;;;;;;;;;;;5054467;28;20364;-58
2023/01/12 00:19:22;;;;;;;;;;;;;;;;;;5052151;28;19913;-58
2023/01/12 00:21:55;;;;;;;;;;;;;;;;;;5063675;28;20361;-58
2023/01/12 00:24:21;;;;;;;;;;;;;;;;;;5054285;28;19917;-58
2023/01/12 00:26:46;;;;;;;;;;;;;;;;;;5054136;28;20326;-58
2023/01/12 00:29:12;;;;;;;;;;;;;;;;;;5053555;28;19912;-59
2023/01/12 00:31:38;;;;;;;;;;;;;;;;;;5054002;28;19924;-58
2023/01/12 00:34:04;;;;;;;;;;;;;;;;;;5054073;28;20002;-58
2023/01/12 00:36:30;;;;;;;;;;;;;;;;;;5053708;28;19999;-58
2023/01/12 00:38:56;;;;;;;;;;;;;;;;;;5052165;28;19927;-58
2023/01/12 00:47:04;;;;;;;;;;;;;;;;;;5034383;28;20689;-58
2023/01/12 00:49:30;;;;;;;;;;;;;;;;;;5050047;28;19917;-59
2023/01/12 00:51:56;;;;;;;;;;;;;;;;;;5051991;28;19951;-58
2023/01/12 00:54:22;;;;;;;;;;;;;;;;;;5060713;28;20011;-58
2023/01/12 00:56:48;;;;;;;;;;;;;;;;;;5052777;28;19913;-58
2023/01/12 00:59:14;;;;;;;;;;;;;;;;;;5053699;28;20280;-57
2023/01/12 01:01:40;;;;;;;;;;;;;;;;;;5050276;28;19959;-58
2023/01/12 01:04:06;;;;;;;;;;;;;;;;;;5048032;28;19968;-58
2023/01/12 01:06:31;;;;;;;;;;;;;;;;;;5033919;28;19964;-58
2023/01/12 01:08:57;;;;;;;;;;;;;;;;;;5035535;28;20006;-58
2023/01/12 01:11:23;;;;;;;;;;;;;;;;;;5062911;28;19916;-58
2023/01/12 01:13:50;;;;;;;;;;;;;;;;;;5051907;28;19913;-58
2023/01/12 01:16:16;;;;;;;;;;;;;;;;;;5043369;28;19952;-58
2023/01/12 01:18:42;;;;;;;;;;;;;;;;;;5045873;28;20437;-58
2023/01/12 01:21:08;;;;;;;;;;;;;;;;;;5049170;28;19916;-58
2023/01/12 01:23:34;;;;;;;;;;;;;;;;;;5045648;28;20280;-59
2023/01/12 01:26:00;;;;;;;;;;;;;;;;;;5053058;28;19920;-58
2023/01/12 01:28:25;;;;;;;;;;;;;;;;;;5051303;28;19913;-59
2023/01/12 01:30:51;;;;;;;;;;;;;;;;;;5047038;28;20416;-58
2023/01/12 01:33:17;;;;;;;;;;;;;;;;;;5033732;28;19920;-59
2023/01/12 01:35:43;;;;;;;;;;;;;;;;;;5050824;28;20407;-58
2023/01/12 01:38:09;;;;;;;;;;;;;;;;;;5052781;28;20042;-59
2023/01/12 01:40:35;;;;;;;;;;;;;;;;;;5052413;28;19913;-59
2023/01/12 01:43:01;;;;;;;;;;;;;;;;;;5051309;28;20342;-59
2023/01/12 01:45:27;;;;;;;;;;;;;;;;;;5051212;28;19913;-59
2023/01/12 01:47:53;;;;;;;;;;;;;;;;;;5050546;28;19958;-59
2023/01/12 01:50:19;;;;;;;;;;;;;;;;;;5047604;28;19992;-58
2023/01/12 01:52:45;;;;;;;;;;;;;;;;;;5053020;28;19916;-59
2023/01/12 01:55:11;;;;;;;;;;;;;;;;;;5055389;28;19913;-59
2023/01/12 01:57:37;;;;;;;;;;;;;;;;;;5052412;28;19955;-59
2023/01/12 02:00:03;;;;;;;;;;;;;;;;;;5044406;28;20430;-59
2023/01/12 02:02:28;;;;;;;;;;;;;;;;;;5034052;28;19916;-59
2023/01/12 02:04:54;;;;;;;;;;;;;;;;;;5044862;28;20370;-59
2023/01/12 02:07:20;;;;;;;;;;;;;;;;;;5052435;28;19913;-59
2023/01/12 02:09:46;;;;;;;;;;;;;;;;;;5052033;28;19995;-58
2023/01/12 02:17:42;;;;;;;;;;;;;;;;;;5072474;28;19916;-59
2023/01/12 02:20:08;;;;;;;;;;;;;;;;;;5071912;28;19924;-58
2023/01/12 02:22:34;;;;;;;;;;;;;;;;;;5072316;28;19912;-58
2023/01/12 02:24:59;;;;;;;;;;;;;;;;;;5060101;28;19917;-58
2023/01/12 02:27:26;;;;;;;;;;;;;;;;;;5052155;28;20339;-57
2023/01/12 02:29:52;;;;;;;;;;;;;;;;;;5052201;28;19919;-58
2023/01/12 02:32:18;;;;;;;;;;;;;;;;;;5054522;28;20323;-58
2023/01/12 02:34:43;;;;;;;;;;;;;;;;;;5056102;28;20016;-59
2023/01/12 02:37:09;;;;;;;;;;;;;;;;;;5056171;28;19912;-58
2023/01/12 02:39:35;;;;;;;;;;;;;;;;;;5052269;28;20406;-58
2023/01/12 02:44:46;;;;;;;;;;;;;;;;;;5044000;28;20390;-59
2023/01/12 02:47:12;;;;;;;;;;;;;;;;;;5036447;28;19913;-59
2023/01/12 02:49:37;;;;;;;;;;;;;;;;;;5054710;28;19961;-58
2023/01/12 02:52:03;;;;;;;;;;;;;;;;;;5049202;28;19913;-58
2023/01/12 02:54:29;;;;;;;;;;;;;;;;;;5045177;28;20015;-58
2023/01/12 02:56:55;;;;;;;;;;;;;;;;;;5061554;28;20671;-57
2023/01/12 02:59:21;;;;;;;;;;;;;;;;;;5044610;28;19914;-58
2023/01/12 03:01:47;;;;;;;;;;;;;;;;;;5052182;28;19928;-58
2023/01/12 03:04:14;;;;;;;;;;;;;;;;;;5039775;28;19917;-59
2023/01/12 03:06:40;;;;;;;;;;;;;;;;;;5036154;28;20296;-59
2023/01/12 03:09:06;;;;;;;;;;;;;;;;;;5050548;28;19916;-59
2023/01/12 03:11:32;;;;;;;;;;;;;;;;;;5053533;28;19971;-58
2023/01/12 03:13:58;;;;;;;;;;;;;;;;;;5067207;28;20316;-58
2023/01/12 03:16:24;;;;;;;;;;;;;;;;;;5055473;28;19964;-58
2023/01/12 03:18:50;;;;;;;;;;;;;;;;;;5054757;28;19993;-59
2023/01/12 03:21:16;;;;;;;;;;;;;;;;;;5041405;28;19952;-58
2023/01/12 03:23:42;;;;;;;;;;;;;;;;;;5052072;28;20333;-58
2023/01/12 03:26:08;;;;;;;;;;;;;;;;;;5057193;28;20331;-59
2023/01/12 03:28:34;;;;;;;;;;;;;;;;;;5039486;28;20043;-59
2023/01/12 03:31:00;;;;;;;;;;;;;;;;;;5050955;28;19912;-59
2023/01/12 03:33:26;;;;;;;;;;;;;;;;;;5039918;28;19967;-59
2023/01/12 03:35:52;;;;;;;;;;;;;;;;;;5047975;28;20340;-59
2023/01/12 03:38:17;;;;;;;;;;;;;;;;;;5050140;28;19920;-58
2023/01/12 03:40:43;;;;;;;;;;;;;;;;;;5060345;28;19959;-59
2023/01/12 03:43:09;;;;;;;;;;;;;;;;;;5049119;28;19956;-59
2023/01/12 03:45:35;;;;;;;;;;;;;;;;;;5054981;28;19919;-58
2023/01/12 03:48:01;;;;;;;;;;;;;;;;;;5045399;28;20451;-59
2023/01/12 03:50:27;;;;;;;;;;;;;;;;;;5038040;28;19952;-59
2023/01/12 03:52:53;;;;;;;;;;;;;;;;;;5038611;28;20007;-58
2023/01/12 03:55:19;;;;;;;;;;;;;;;;;;5049164;28;20291;-58
2023/01/12 03:57:45;;;;;;;;;;;;;;;;;;5055587;28;20008;-58
2023/01/12 04:00:10;;;;;;;;;;;;;;;;;;5054546;28;19908;-59
2023/01/12 04:02:36;;;;;;;;;;;;;;;;;;5039005;28;20699;-59
2023/01/12 04:05:02;;;;;;;;;;;;;;;;;;5051334;28;19968;-59
2023/01/12 04:07:29;;;;;;;;;;;;;;;;;;5043154;28;20322;-58
2023/01/12 04:09:56;;;;;;;;;;;;;;;;;;5054088;28;19960;-59
2023/01/12 04:12:21;;;;;;;;;;;;;;;;;;5054719;28;20386;-59
2023/01/12 04:14:48;;;;;;;;;;;;;;;;;;5057646;28;19916;-59
2023/01/12 04:17:14;;;;;;;;;;;;;;;;;;5074389;28;19908;-59
2023/01/12 04:19:40;;;;;;;;;;;;;;;;;;5054582;28;19956;-58
2023/01/12 04:24:50;;;;;;;;;;;;;;;;;;5052740;28;20433;-59
2023/01/12 04:27:16;;;;;;;;;;;;;;;;;;5071109;28;19912;-59
2023/01/12 04:29:42;;;;;;;;;;;;;;;;;;5074119;28;19958;-58
2023/01/12 04:32:08;;;;;;;;;;;;;;;;;;5074274;28;19982;-59
2023/01/12 04:34:34;;;;;;;;;;;;;;;;;;5053956;28;19978;-59
2023/01/12 04:37:00;;;;;;;;;;;;;;;;;;5052517;28;19995;-59
2023/01/12 04:39:26;;;;;;;;;;;;;;;;;;5046648;28;20288;-59
2023/01/12 04:41:52;;;;;;;;;;;;;;;;;;5048614;28;19913;-59
2023/01/12 04:44:18;;;;;;;;;;;;;;;;;;5053834;28;20008;-59
2023/01/12 04:46:44;;;;;;;;;;;;;;;;;;5052229;28;20369;-59
2023/01/12 04:49:10;;;;;;;;;;;;;;;;;;5050997;28;19945;-59
2023/01/12 04:51:36;;;;;;;;;;;;;;;;;;5051746;28;19919;-59
2023/01/12 04:54:01;;;;;;;;;;;;;;;;;;5034533;28;19913;-59
2023/01/12 04:56:27;;;;;;;;;;;;;;;;;;5042555;28;19959;-59
2023/01/12 04:58:53;;;;;;;;;;;;;;;;;;5051783;28;20000;-59
2023/01/12 05:01:21;;;;;;;;;;;;;;;;;;5043738;28;20331;-59
2023/01/12 05:03:47;;;;;;;;;;;;;;;;;;5036284;28;19972;-59
2023/01/12 05:06:12;;;;;;;;;;;;;;;;;;5046034;28;20403;-59
2023/01/12 05:11:23;;;;;;;;;;;;;;;;;;5034483;28;19935;-59
2023/01/12 05:13:49;;;;;;;;;;;;;;;;;;5045577;28;20003;-59
2023/01/12 05:16:15;;;;;;;;;;;;;;;;;;5046550;28;19919;-59
2023/01/12 05:18:40;;;;;;;;;;;;;;;;;;5048942;28;20324;-59
2023/01/12 05:21:06;;;;;;;;;;;;;;;;;;5044004;28;20003;-58
2023/01/12 05:23:32;;;;;;;;;;;;;;;;;;5043393;28;19917;-59
2023/01/12 05:25:58;;;;;;;;;;;;;;;;;;5048569;28;19916;-59
2023/01/12 05:28:24;;;;;;;;;;;;;;;;;;5054403;28;20010;-59
2023/01/12 05:30:50;;;;;;;;;;;;;;;;;;5047740;28;20357;-59
2023/01/12 05:33:18;;;;;;;;;;;;;;;;;;5050997;28;20012;-59
2023/01/12 05:35:44;;;;;;;;;;;;;;;;;;5033888;28;20332;-59
2023/01/12 05:38:09;;;;;;;;;;;;;;;;;;5048734;28;19995;-59
2023/01/12 05:40:35;;;;;;;;;;;;;;;;;;5043937;28;20015;-59
2023/01/12 05:45:46;;;;;;;;;;;;;;;;;;5039011;28;20004;-59
2023/01/12 05:48:12;;;;;;;;;;;;;;;;;;5047342;28;20347;-59
2023/01/12 05:50:38;;;;;;;;;;;;;;;;;;5046535;28;19974;-59
2023/01/12 05:53:03;;;;;;;;;;;;;;;;;;5048291;28;19952;-60
2023/01/12 05:55:29;;;;;;;;;;;;;;;;;;5046700;28;20394;-59
2023/01/12 05:57:55;;;;;;;;;;;;;;;;;;5042928;28;19951;-59
2023/01/12 06:00:21;;;;;;;;;;;;;;;;;;5042200;28;19945;-59
2023/01/12 06:02:47;;;;;;;;;;;;;;;;;;5044350;28;19917;-58
2023/01/12 06:05:13;;;;;;;;;;;;;;;;;;5027546;28;20679;-59
2023/01/12 06:07:39;;;;;;;;;;;;;;;;;;5048208;28;19982;-59
2023/01/12 06:10:05;;;;;;;;;;;;;;;;;;5049373;28;19912;-59
2023/01/12 06:15:15;;;;;;;;;;;;;;;;;;5049777;28;20311;-59
2023/01/12 06:17:41;;;;;;;;;;;;;;;;;;5043671;28;19921;-59
2023/01/12 06:20:07;;;;;;;;;;;;;;;;;;5050547;28;19927;-59
2023/01/12 06:22:33;;;;;;;;;;;;;;;;;;5048676;28;20313;-59
2023/01/12 06:24:59;;;;;;;;;;;;;;;;;;5048297;28;19940;-59
2023/01/12 06:27:25;;;;;;;;;;;;;;;;;;5043856;28;20340;-59
2023/01/12 06:29:51;;;;;;;;;;;;;;;;;;5047596;28;19999;-59
2023/01/12 06:32:17;;;;;;;;;;;;;;;;;;5051585;28;19913;-59
2023/01/12 06:34:42;;;;;;;;;;;;;;;;;;5057234;28;19913;-59
2023/01/12 06:37:10;;;;;;;;;;;;;;;;;;5036448;28;19922;-59
2023/01/12 06:39:36;;;;;;;;;;;;;;;;;;5046219;28;20295;-59
2023/01/12 06:44:47;;;;;;;;;;;;;;;;;;5048912;28;20012;-59
2023/01/12 06:47:13;;;;;;;;;;;;;;;;;;5040315;28;20533;-59
2023/01/12 06:49:38;;;;;;;;;;;;;;;;;;5045722;28;19956;-59
2023/01/12 06:52:04;;;;;;;;;;;;;;;;;;5040251;28;19912;-59
2023/01/12 06:54:30;;;;;;;;;;;;;;;;;;5050958;28;20322;-59
2023/01/12 06:56:56;;;;;;;;;;;;;;;;;;5047311;28;19939;-59
2023/01/12 06:59:22;;;;;;;;;;;;;;;;;;5047264;28;19936;-59
2023/01/12 07:01:48;;;;;;;;;;;;;;;;;;5038582;28;19962;-59
2023/01/12 07:04:14;;;;;;;;;;;;;;;;;;5048966;28;19923;-59
2023/01/12 07:06:40;;;;;;;;;;;;;;;;;;5047906;28;20002;-59
2023/01/12 07:09:06;;;;;;;;;;;;;;;;;;5049489;28;19913;-59
2023/01/12 07:11:32;;;;;;;;;;;;;;;;;;5047561;28;19913;-59
2023/01/12 07:13:57;;;;;;;;;;;;;;;;;;5046039;28;20258;-59
2023/01/12 07:16:23;;;;;;;;;;;;;;;;;;5049125;28;19999;-59
2023/01/12 07:18:49;;;;;;;;;;;;;;;;;;5044183;28;19917;-59
2023/01/12 07:21:16;;;;;;;;;;;;;;;;;;5047911;28;20536;-59
2023/01/12 07:23:42;;;;;;;;;;;;;;;;;;5053797;28;19916;-59
2023/01/12 07:26:09;;;;;;;;;;;;;;;;;;5056581;28;19913;-59
2023/01/12 07:28:35;;;;;;;;;;;;;;;;;;5052556;28;19912;-59
2023/01/12 07:31:01;;;;;;;;;;;;;;;;;;5053896;28;19915;-59
2023/01/12 07:33:27;;;;;;;;;;;;;;;;;;5050569;28;19923;-59
2023/01/12 07:35:53;;;;;;;;;;;;;;;;;;5041067;28;19913;-59
2023/01/12 07:38:19;;;;;;;;;;;;;;;;;;5049388;28;19932;-59
2023/01/12 07:40:45;;;;;;;;;;;;;;;;;;5052406;28;20026;-59
2023/01/12 07:43:13;;;;;;;;;;;;;;;;;;5056574;28;19921;-59
2023/01/12 07:45:39;;;;;;;;;;;;;;;;;;5053260;28;19967;-59
2023/01/12 07:48:05;;;;;;;;;;;;;;;;;;5049002;28;20380;-59
2023/01/12 07:50:31;;;;;;;;;;;;;;;;;;5049176;28;19917;-58
2023/01/12 07:52:57;;;;;;;;;;;;;;;;;;5051884;28;20287;-59
2023/01/12 07:55:23;;;;;;;;;;;;;;;;;;5043546;28;19915;-58
2023/01/12 07:57:48;;;;;;;;;;;;;;;;;;5049130;28;19964;-59
2023/01/12 08:00:14;;;;;;;;;;;;;;;;;;5050275;28;19921;-59
2023/01/12 08:02:40;;;;;;;;;;;;;;;;;;5042771;28;20008;-59
2023/01/12 08:05:06;;;;;;;;;;;;;;;;;;5049034;28;19924;-58
2023/01/12 08:07:33;;;;;;;;;;;;;;;;;;5039931;28;20027;-58
2023/01/12 08:09:58;;;;;;;;;;;;;;;;;;5050408;28;19909;-58
2023/01/12 08:12:24;;;;;;;;;;;;;;;;;;5052395;28;19940;-58
2023/01/12 08:14:50;;;;;;;;;;;;;;;;;;5053432;28;19912;-59
2023/01/12 08:17:16;;;;;;;;;;;;;;;;;;5053461;28;19962;-59
2023/01/12 08:19:42;;;;;;;;;;;;;;;;;;5049171;28;19952;-59
2023/01/12 08:22:08;;;;;;;;;;;;;;;;;;5046495;28;19954;-58
2023/01/12 08:24:34;;;;;;;;;;;;;;;;;;5042867;28;19956;-59
2023/01/12 08:27:00;;;;;;;;;;;;;;;;;;5047031;28;19972;-58
2023/01/12 08:29:31;;;;;;;;;;;;;;;;;;5054806;28;19952;-59
2023/01/12 08:31:57;;;;;;;;;;;;;;;;;;5052619;28;19916;-59
2023/01/12 08:34:23;;;;;;;;;;;;;;;;;;5038363;28;19910;-59
2023/01/12 08:36:49;;;;;;;;;;;;;;;;;;5051802;28;19924;-59
2023/01/12 08:39:15;;;;;;;;;;;;;;;;;;5043157;28;22038;-59
2023/01/12 08:41:41;;;;;;;;;;;;;;;;;;5052572;28;19919;-58
2023/01/12 08:44:10;;;;;;;;;;;;;;;;;;5044239;28;19913;-59
2023/01/12 08:46:35;;;;;;;;;;;;;;;;;;5051292;28;19935;-59
2023/01/12 08:49:01;;;;;;;;;;;;;;;;;;5042586;28;19956;-59
2023/01/12 08:51:27;;;;;;;;;;;;;;;;;;5048469;28;19956;-59
2023/01/12 08:53:53;;;;;;;;;;;;;;;;;;5055319;28;19909;-58
2023/01/12 08:56:19;;;;;;;;;;;;;;;;;;5034265;28;20367;-58
2023/01/12 08:58:45;;;;;;;;;;;;;;;;;;5039839;28;20349;-57
2023/01/12 09:01:12;;;;;;;;;;;;;;;;;;5054429;28;19992;-59
2023/01/12 09:03:37;;;;;;;;;;;;;;;;;;5037736;28;20399;-59
2023/01/12 09:06:03;;;;;;;;;;;;;;;;;;5042586;28;20066;-59
2023/01/12 09:08:29;;;;;;;;;;;;;;;;;;5049828;28;20015;-59
2023/01/12 09:10:55;;;;;;;;;;;;;;;;;;5049464;28;20357;-59
2023/01/12 09:13:21;;;;;;;;;;;;;;;;;;5048759;28;19915;-59
2023/01/12 09:15:47;;;;;;;;;;;;;;;;;;5052176;28;20337;-59
2023/01/12 09:18:13;;;;;;;;;;;;;;;;;;5050388;28;19919;-58
2023/01/12 09:20:39;;;;;;;;;;;;;;;;;;5045804;28;19913;-58
2023/01/12 09:23:05;;;;;;;;;;;;;;;;;;5050902;28;19975;-59
2023/01/12 09:25:30;;;;;;;;;;;;;;;;;;5050558;28;19919;-59
2023/01/12 09:27:56;;;;;;;;;;;;;;;;;;5038808;28;19984;-59
2023/01/12 09:30:22;;;;;;;;;;;;;;;;;;5043643;28;19964;-58
2023/01/12 09:32:48;;;;;;;;;;;;;;;;;;5051361;28;20303;-58
2023/01/12 09:35:14;;;;;;;;;;;;;;;;;;5051350;28;19965;-59
2023/01/12 09:37:42;;;;;;;;;;;;;;;;;;5048780;28;19957;-59
2023/01/12 09:40:08;;;;;;;;;;;;;;;;;;5049871;28;19939;-59
2023/01/12 09:48:03;;;;;;;;;;;;;;;;;;5051780;28;19920;-59
2023/01/12 09:50:31;;;;;;;;;;;;;;;;;;5059429;28;19949;-59
2023/01/12 09:52:57;;;;;;;;;;;;;;;;;;5048298;28;19924;-59
2023/01/12 09:55:23;;;;;;;;;;;;;;;;;;5045754;28;19924;-59
2023/01/12 09:57:49;;;;;;;;;;;;;;;;;;5049460;28;19958;-59
2023/01/12 10:00:14;;;;;;;;;;;;;;;;;;5051219;28;20360;-59
2023/01/12 10:02:40;;;;;;;;;;;;;;;;;;5046452;28;19920;-59
2023/01/12 10:05:06;;;;;;;;;;;;;;;;;;5050497;28;20376;-58
2023/01/12 10:07:32;;;;;;;;;;;;;;;;;;5049247;28;19912;-59
2023/01/12 10:09:58;;;;;;;;;;;;;;;;;;5051218;28;20003;-59
2023/01/12 10:12:24;;;;;;;;;;;;;;;;;;5044418;28;20913;-59
2023/01/12 10:14:50;;;;;;;;;;;;;;;;;;5045718;28;19913;-59
2023/01/12 10:17:16;;;;;;;;;;;;;;;;;;5049397;28;19912;-59
2023/01/12 10:19:42;;;;;;;;;;;;;;;;;;5050952;28;19913;-59
2023/01/12 10:22:08;;;;;;;;;;;;;;;;;;5050177;28;20010;-59
2023/01/12 10:24:34;;;;;;;;;;;;;;;;;;5049283;28;19917;-59
2023/01/12 10:27:00;;;;;;;;;;;;;;;;;;5052895;28;20275;-59
2023/01/12 10:29:26;;;;;;;;;;;;;;;;;;5049807;28;19955;-59
2023/01/12 10:31:51;;;;;;;;;;;;;;;;;;5044366;28;20323;-59
2023/01/12 10:34:17;;;;;;;;;;;;;;;;;;5049962;28;19963;-59
2023/01/12 10:36:43;;;;;;;;;;;;;;;;;;5048938;28;19952;-58
2023/01/12 10:39:09;;;;;;;;;;;;;;;;;;5048692;28;20427;-59
2023/01/12 10:41:36;;;;;;;;;;;;;;;;;;5050769;28;19948;-59
2023/01/12 10:44:02;;;;;;;;;;;;;;;;;;5049814;28;19917;-59
2023/01/12 10:46:30;;;;;;;;;;;;;;;;;;5051048;28;20339;-59
2023/01/12 10:48:56;;;;;;;;;;;;;;;;;;5044413;28;19913;-59
2023/01/12 10:51:22;;;;;;;;;;;;;;;;;;5050715;28;20006;-59
2023/01/12 10:53:48;;;;;;;;;;;;;;;;;;5053449;28;19962;-59
2023/01/12 10:56:14;;;;;;;;;;;;;;;;;;5056219;28;19948;-59
2023/01/12 10:58:40;;;;;;;;;;;;;;;;;;5055075;28;20005;-59
2023/01/12 11:01:06;;;;;;;;;;;;;;;;;;5053907;28;19959;-59
2023/01/12 11:03:32;;;;;;;;;;;;;;;;;;5055928;28;19967;-59
2023/01/12 11:05:57;;;;;;;;;;;;;;;;;;5054747;28;20014;-59
2023/01/12 11:08:23;;;;;;;;;;;;;;;;;;5054603;28;19952;-59
2023/01/12 11:10:49;;;;;;;;;;;;;;;;;;5054383;28;19996;-59
2023/01/12 11:13:15;;;;;;;;;;;;;;;;;;5052618;28;20010;-59
2023/01/12 11:15:41;;;;;;;;;;;;;;;;;;5061688;28;19916;-58
2023/01/12 11:18:07;;;;;;;;;;;;;;;;;;5051092;28;19920;-59
2023/01/12 11:20:33;;;;;;;;;;;;;;;;;;5054011;28;20008;-59
2023/01/12 11:22:59;;;;;;;;;;;;;;;;;;5054453;28;19935;-58
2023/01/12 11:25:25;;;;;;;;;;;;;;;;;;5052637;28;20388;-58
2023/01/12 11:27:51;;;;;;;;;;;;;;;;;;5051398;28;19955;-57
2023/01/12 11:30:17;;;;;;;;;;;;;;;;;;5051954;28;19944;-58
2023/01/12 11:32:43;;;;;;;;;;;;;;;;;;5062696;28;19952;-58
2023/01/12 11:35:09;;;;;;;;;;;;;;;;;;5054052;28;19913;-58
2023/01/12 11:37:35;;;;;;;;;;;;;;;;;;5052186;28;19999;-57
2023/01/12 11:40:01;;;;;;;;;;;;;;;;;;5053941;28;19931;-58
2023/01/12 11:45:11;;;;;;;;;;;;;;;;;;5053947;28;20521;-56
2023/01/12 11:47:37;;;;;;;;;;;;;;;;;;5051865;28;19913;-57
2023/01/12 11:50:03;;;;;;;;;;;;;;;;;;5043815;28;19956;-57
2023/01/12 11:52:29;;;;;;;;;;;;;;;;;;5054992;28;20019;-57
2023/01/12 11:54:55;;;;;;;;;;;;;;;;;;5056816;28;19913;-57
2023/01/12 11:57:21;;;;;;;;;;;;;;;;;;5053580;28;20356;-57
2023/01/12 11:59:47;;;;;;;;;;;;;;;;;;5052289;28;19940;-57
2023/01/12 12:02:12;;;;;;;;;;;;;;;;;;5053700;28;20255;-57
2023/01/12 12:04:38;;;;;;;;;;;;;;;;;;5055915;28;19964;-57
2023/01/12 12:07:04;;;;;;;;;;;;;;;;;;5053635;28;19913;-54
2023/01/12 12:09:30;;;;;;;;;;;;;;;;;;5053917;28;19958;-55
2023/01/12 12:11:56;;;;;;;;;;;;;;;;;;5051033;28;20392;-55
2023/01/12 12:14:22;;;;;;;;;;;;;;;;;;5050517;28;19963;-54
2023/01/12 12:16:48;;;;;;;;;;;;;;;;;;5050831;28;20391;-54
2023/01/12 12:19:14;;;;;;;;;;;;;;;;;;5048927;28;20364;-55
2023/01/12 12:21:40;;;;;;;;;;;;;;;;;;5053010;28;20398;-56
2023/01/12 12:24:06;;;;;;;;;;;;;;;;;;5050881;28;19925;-56
2023/01/12 12:26:32;;;;;;;;;;;;;;;;;;5047028;28;19919;-56
2023/01/12 12:28:58;;;;;;;;;;;;;;;;;;5053021;28;19909;-56
2023/01/12 12:31:24;;;;;;;;;;;;;;;;;;5052947;28;19909;-55
2023/01/12 12:33:50;;;;;;;;;;;;;;;;;;5052724;28;20081;-55
2023/01/12 12:36:16;;;;;;;;;;;;;;;;;;5051302;28;19917;-55
2023/01/12 12:38:42;;;;;;;;;;;;;;;;;;5056907;28;19912;-56
2023/01/12 12:46:37;;;;;;;;;;;;;;;;;;5053062;28;19912;-55
2023/01/12 12:49:04;;;;;;;;;;;;;;;;;;5041845;28;19913;-56
2023/01/12 12:51:30;;;;;;;;;;;;;;;;;;5048857;28;19956;-54
2023/01/12 12:53:55;;;;;;;;;;;;;;;;;;5050939;28;20285;-55
2023/01/12 12:56:21;;;;;;;;;;;;;;;;;;5050488;28;20401;-56
2023/01/12 12:58:47;;;;;;;;;;;;;;;;;;5052967;28;19919;-56
2023/01/12 13:01:13;;;;;;;;;;;;;;;;;;5051739;28;19913;-56
2023/01/12 13:03:39;;;;;;;;;;;;;;;;;;5044552;28;20024;-56
2023/01/12 13:06:05;;;;;;;;;;;;;;;;;;5040691;28;19921;-57
2023/01/12 13:08:31;;;;;;;;;;;;;;;;;;5049546;28;19944;-56
2023/01/12 13:10:57;;;;;;;;;;;;;;;;;;5047329;28;19962;-57
2023/01/12 13:13:23;;;;;;;;;;;;;;;;;;5049518;28;20403;-57
2023/01/12 13:15:49;;;;;;;;;;;;;;;;;;5048795;28;19948;-59
2023/01/12 13:18:15;;;;;;;;;;;;;;;;;;5043799;28;19970;-56
2023/01/12 13:20:41;;;;;;;;;;;;;;;;;;5050335;28;19920;-57
2023/01/12 13:23:07;;;;;;;;;;;;;;;;;;5048820;28;19947;-57
2023/01/12 13:25:33;;;;;;;;;;;;;;;;;;5041273;28;19952;-57
2023/01/12 13:27:59;;;;;;;;;;;;;;;;;;5043736;28;19999;-57
2023/01/12 13:30:25;;;;;;;;;;;;;;;;;;5044269;28;19919;-57
2023/01/12 13:32:51;;;;;;;;;;;;;;;;;;5048907;28;20027;-58
2023/01/12 13:35:17;;;;;;;;;;;;;;;;;;5049752;28;20003;-57
2023/01/12 13:37:43;;;;;;;;;;;;;;;;;;5051518;28;19944;-57
2023/01/12 13:40:09;;;;;;;;;;;;;;;;;;5051660;28;19946;-58
2023/01/12 13:45:20;;;;;;;;;;;;;;;;;;5050770;28;19923;-59
2023/01/12 13:47:46;;;;;;;;;;;;;;;;;;5040675;28;20003;-58
2023/01/12 13:50:12;;;;;;;;;;;;;;;;;;5049129;28;20025;-59
2023/01/12 13:52:38;;;;;;;;;;;;;;;;;;5051634;28;19936;-58
2023/01/12 13:55:04;;;;;;;;;;;;;;;;;;5051268;28;19959;-58
2023/01/12 13:57:30;;;;;;;;;;;;;;;;;;5046834;28;19990;-57
2023/01/12 13:59:56;;;;;;;;;;;;;;;;;;5050900;28;19923;-58
2023/01/12 14:02:22;;;;;;;;;;;;;;;;;;5055446;28;20016;-58
2023/01/12 14:04:48;;;;;;;;;;;;;;;;;;5050440;28;20019;-57
2023/01/12 14:07:14;;;;;;;;;;;;;;;;;;5050765;28;20388;-57
2023/01/12 14:09:40;;;;;;;;;;;;;;;;;;5051528;28;20395;-59
2023/01/12 14:12:06;;;;;;;;;;;;;;;;;;5049610;28;19952;-58
2023/01/12 14:20:02;;;;;;;;;;;;;;;;;;5051169;28;19919;-58
2023/01/12 14:22:28;;;;;;;;;;;;;;;;;;5050927;28;19917;-59
2023/01/12 14:24:54;;;;;;;;;;;;;;;;;;5051049;28;19960;-59
2023/01/12 14:27:20;;;;;;;;;;;;;;;;;;5052396;28;20355;-58
2023/01/12 14:29:46;;;;;;;;;;;;;;;;;;5058193;28;20704;-59
2023/01/12 14:32:12;;;;;;;;;;;;;;;;;;5048242;28;19956;-58
2023/01/12 14:34:40;;;;;;;;;;;;;;;;;;5049379;28;19924;-58
2023/01/12 14:37:09;;;;;;;;;;;;;;;;;;5055075;28;20415;-58
2023/01/12 14:39:35;;;;;;;;;;;;;;;;;;5057940;28;19912;-58
2023/01/12 14:47:33;;;;;;;;;;;;;;;;;;5057601;28;20407;-58
2023/01/12 14:49:59;;;;;;;;;;;;;;;;;;5057194;28;19956;-58
2023/01/12 14:52:25;;;;;;;;;;;;;;;;;;5057182;28;20388;-58
2023/01/12 14:54:51;;;;;;;;;;;;;;;;;;5061129;28;19912;-58
2023/01/12 14:57:16;;;;;;;;;;;;;;;;;;5053388;28;20308;-58
2023/01/12 14:59:42;;;;;;;;;;;;;;;;;;5057469;28;19913;-58
2023/01/12 15:02:08;;;;;;;;;;;;;;;;;;5051715;28;19970;-61
2023/01/12 15:04:34;;;;;;;;;;;;;;;;;;5057221;28;20330;-58
2023/01/12 15:07:00;;;;;;;;;;;;;;;;;;5056974;28;19925;-59
2023/01/12 15:09:26;;;;;;;;;;;;;;;;;;5056541;28;19966;-58
2023/01/12 15:11:52;;;;;;;;;;;;;;;;;;5054397;28;19920;-58
2023/01/12 15:14:18;;;;;;;;;;;;;;;;;;5057415;28;19956;-59
2023/01/12 15:27:44;;;;;;;;;;;;;;;;;;5054756;28;20387;-58
2023/01/12 15:30:10;;;;;;;;;;;;;;;;;;5052838;28;19956;-58
2023/01/12 15:32:36;;;;;;;;;;;;;;;;;;5057266;28;20011;-58
2023/01/12 15:35:02;;;;;;;;;;;;;;;;;;5054760;28;19966;-58
2023/01/12 15:37:28;;;;;;;;;;;;;;;;;;5061659;28;19951;-58
2023/01/12 15:39:55;;;;;;;;;;;;;;;;;;5051709;28;20365;-58
2023/01/12 15:42:21;;;;;;;;;;;;;;;;;;5052941;28;19913;-58
2023/01/12 15:44:47;;;;;;;;;;;;;;;;;;5046029;28;19932;-58
2023/01/12 15:47:13;;;;;;;;;;;;;;;;;;5047472;28;19948;-58
2023/01/12 15:49:40;;;;;;;;;;;;;;;;;;5045808;28;19964;-59
2023/01/12 15:52:06;;;;;;;;;;;;;;;;;;5047728;28;20011;-58
2023/01/12 15:54:32;;;;;;;;;;;;;;;;;;5052092;28;19991;-58
2023/01/12 15:56:58;;;;;;;;;;;;;;;;;;5052092;28;19909;-59
2023/01/12 15:59:24;;;;;;;;;;;;;;;;;;5049076;28;19917;-58
2023/01/12 16:01:50;;;;;;;;;;;;;;;;;;5052082;28;20387;-57
2023/01/12 16:04:16;;;;;;;;;;;;;;;;;;5052295;28;19953;-58
2023/01/12 16:06:42;;;;;;;;;;;;;;;;;;5045455;28;19951;-58
2023/01/12 16:09:08;;;;;;;;;;;;;;;;;;5045904;28;20020;-57
2023/01/12 16:11:34;;;;;;;;;;;;;;;;;;5050700;28;19940;-58
2023/01/12 16:14:00;;;;;;;;;;;;;;;;;;5046077;28;20717;-58
2023/01/12 16:16:27;;;;;;;;;;;;;;;;;;5040862;28;19917;-57
2023/01/12 16:18:57;;;;;;;;;;;;;;;;;;5052591;28;19913;-58
2023/01/12 16:21:23;;;;;;;;;;;;;;;;;;5052607;28;19996;-57
2023/01/12 16:23:49;;;;;;;;;;;;;;;;;;5049171;28;20057;-57
2023/01/12 16:26:15;;;;;;;;;;;;;;;;;;5052058;28;19916;-57
2023/01/12 16:28:40;;;;;;;;;;;;;;;;;;5052536;28;20451;-58
2023/01/12 16:31:07;;;;;;;;;;;;;;;;;;5048129;28;19912;-57
2023/01/12 16:33:33;;;;;;;;;;;;;;;;;;5038474;28;19928;-57
2023/01/12 16:36:00;;;;;;;;;;;;;;;;;;5048881;28;19948;-57
2023/01/12 16:38:26;;;;;;;;;;;;;;;;;;5052145;28;20399;-58
2023/01/12 16:40:53;;;;;;;;;;;;;;;;;;5050437;28;19909;-58
2023/01/12 16:43:19;;;;;;;;;;;;;;;;;;5048349;28;19916;-58
2023/01/12 16:45:45;;;;;;;;;;;;;;;;;;5048991;28;19922;-57
2023/01/12 16:48:11;;;;;;;;;;;;;;;;;;5046731;28;20333;-57
2023/01/12 16:50:37;;;;;;;;;;;;;;;;;;5045621;28;20375;-57
2023/01/12 16:53:03;;;;;;;;;;;;;;;;;;5045932;28;19917;-57
2023/01/12 16:55:29;;;;;;;;;;;;;;;;;;5050840;28;19935;-58
2023/01/12 16:57:55;;;;;;;;;;;;;;;;;;5051774;28;19913;-57
2023/01/12 17:00:21;;;;;;;;;;;;;;;;;;5051645;28;19944;-58
2023/01/12 17:02:47;;;;;;;;;;;;;;;;;;5052414;28;20471;-57
2023/01/12 17:05:13;;;;;;;;;;;;;;;;;;5045836;28;19964;-57
2023/01/12 17:07:39;;;;;;;;;;;;;;;;;;5045248;28;19956;-58
2023/01/12 17:10:05;;;;;;;;;;;;;;;;;;5051622;28;19913;-57
2023/01/12 17:12:31;;;;;;;;;;;;;;;;;;5047757;28;20360;-57
2023/01/12 17:14:57;;;;;;;;;;;;;;;;;;5041577;28;19931;-57
2023/01/12 17:17:23;;;;;;;;;;;;;;;;;;5050968;28;20393;-57
2023/01/12 17:19:49;;;;;;;;;;;;;;;;;;5050385;28;20419;-57
2023/01/12 17:22:15;;;;;;;;;;;;;;;;;;5047236;28;19967;-58
2023/01/12 17:24:41;;;;;;;;;;;;;;;;;;5045718;28;19974;-58
2023/01/12 17:27:07;;;;;;;;;;;;;;;;;;5039982;28;19913;-57
2023/01/12 17:29:33;;;;;;;;;;;;;;;;;;5042279;28;19959;-58
2023/01/12 17:32:02;;;;;;;;;;;;;;;;;;5050024;28;20064;-56
2023/01/12 17:34:29;;;;;;;;;;;;;;;;;;5044480;28;20358;-58
2023/01/12 17:36:55;;;;;;;;;;;;;;;;;;5042888;28;19919;-59
2023/01/12 17:39:21;;;;;;;;;;;;;;;;;;5037011;28;19956;-58
2023/01/12 17:44:32;;;;;;;;;;;;;;;;;;5030925;28;19932;-58
2023/01/12 17:46:58;;;;;;;;;;;;;;;;;;5045087;28;20412;-58